sensor_id;sensor_type;location;lat;lon;timestamp;pressure;altitude;pressure_sealevel;temperature;humidity
21869;BME280;11099;41.564;23.296;2023-04-30T00:00:49;97221.50;;;12.11;93.21
21869;BME280;11099;41.564;23.296;2023-04-30T00:03:15;97312.56;;;12.89;94.14
21869;BME280;11099;41.564;23.296;2023-04-30T00:05:41;97240.31;;;12.44;93.72
21869;BME280;11099;41.564;23.296;2023-04-30T00:08:06;97263.09;;;12.62;94.03
21869;BME280;11099;41.564;23.296;2023-04-30T00:10:32;97205.06;;;12.30;94.22
21869;BME280;11099;41.564;23.296;2023-04-30T00:12:57;97251.78;;;12.65;94.46
21869;BME280;11099;41.564;23.296;2023-04-30T00:15:23;97168.00;;;12.07;93.92
21869;BME280;11099;41.564;23.296;2023-04-30T00:17:48;97274.13;;;12.02;96.10
21869;BME280;11099;41.564;23.296;2023-04-30T00:20:14;97213.84;;;12.09;92.81
21869;BME280;11099;41.564;23.296;2023-04-30T00:22:40;97129.59;;;11.70;91.96
21869;BME280;11099;41.564;23.296;2023-04-30T00:25:06;97170.75;;;11.99;92.24
21869;BME280;11099;41.564;23.296;2023-04-30T00:27:32;97178.84;;;11.81;93.66
21869;BME280;11099;41.564;23.296;2023-04-30T00:29:57;97304.91;;;12.88;93.98
21869;BME280;11099;41.564;23.296;2023-04-30T00:32:23;97177.59;;;12.29;91.79
21869;BME280;11099;41.564;23.296;2023-04-30T00:34:49;97156.22;;;11.79;93.65
21869;BME280;11099;41.564;23.296;2023-04-30T00:37:15;97404.13;;;13.28;95.53
21869;BME280;11099;41.564;23.296;2023-04-30T00:39:40;97221.00;;;11.79;95.03
21869;BME280;11099;41.564;23.296;2023-04-30T00:42:06;97332.25;;;12.85;94.39
21869;BME280;11099;41.564;23.296;2023-04-30T00:44:32;97143.06;;;11.82;92.78
21869;BME280;11099;41.564;23.296;2023-04-30T00:46:58;97228.63;;;12.28;92.47
21869;BME280;11099;41.564;23.296;2023-04-30T00:49:25;97157.94;;;11.45;93.07
21869;BME280;11099;41.564;23.296;2023-04-30T00:51:51;97313.31;;;12.99;91.48
21869;BME280;11099;41.564;23.296;2023-04-30T00:54:19;97269.09;;;12.38;91.39
21869;BME280;11099;41.564;23.296;2023-04-30T00:56:45;97264.44;;;12.27;92.73
21869;BME280;11099;41.564;23.296;2023-04-30T00:59:12;97196.44;;;11.65;93.48
21869;BME280;11099;41.564;23.296;2023-04-30T01:01:38;97136.63;;;11.37;94.41
21869;BME280;11099;41.564;23.296;2023-04-30T01:04:03;97414.75;;;12.86;96.34
21869;BME280;11099;41.564;23.296;2023-04-30T01:06:29;97378.13;;;12.57;96.46
21869;BME280;11099;41.564;23.296;2023-04-30T01:08:56;97338.06;;;12.57;95.32
21869;BME280;11099;41.564;23.296;2023-04-30T01:14:08;97384.25;;;13.92;90.79
21869;BME280;11099;41.564;23.296;2023-04-30T01:16:51;97359.63;;;13.65;89.59
21869;BME280;11099;41.564;23.296;2023-04-30T01:19:40;97380.22;;;13.32;92.19
21869;BME280;11099;41.564;23.296;2023-04-30T01:22:13;97382.09;;;13.31;91.17
21869;BME280;11099;41.564;23.296;2023-04-30T01:28:00;97346.47;;;12.98;91.74
21869;BME280;11099;41.564;23.296;2023-04-30T01:30:29;97343.63;;;13.03;91.30
21869;BME280;11099;41.564;23.296;2023-04-30T01:32:56;97376.75;;;13.31;90.93
21869;BME280;11099;41.564;23.296;2023-04-30T01:38:31;97387.66;;;13.17;92.36
21869;BME280;11099;41.564;23.296;2023-04-30T01:41:09;97365.34;;;13.22;91.55
21869;BME280;11099;41.564;23.296;2023-04-30T01:44:23;97382.56;;;13.54;89.01
21869;BME280;11099;41.564;23.296;2023-04-30T01:52:31;97366.13;;;13.23;90.99
21869;BME280;11099;41.564;23.296;2023-04-30T01:55:07;97368.22;;;12.87;92.08
21869;BME280;11099;41.564;23.296;2023-04-30T01:57:43;97375.28;;;13.13;91.31
21869;BME280;11099;41.564;23.296;2023-04-30T02:00:14;97306.25;;;12.94;90.09
21869;BME280;11099;41.564;23.296;2023-04-30T02:02:42;97375.16;;;13.51;89.79
21869;BME280;11099;41.564;23.296;2023-04-30T02:05:07;97287.34;;;12.78;90.69
21869;BME280;11099;41.564;23.296;2023-04-30T02:07:41;97380.56;;;13.30;92.61
21869;BME280;11099;41.564;23.296;2023-04-30T02:10:10;97373.69;;;13.41;90.73
21869;BME280;11099;41.564;23.296;2023-04-30T02:12:37;97320.66;;;12.81;90.59
21869;BME280;11099;41.564;23.296;2023-04-30T02:15:04;97372.28;;;12.93;92.41
21869;BME280;11099;41.564;23.296;2023-04-30T02:17:30;97255.34;;;12.19;93.15
21869;BME280;11099;41.564;23.296;2023-04-30T02:19:56;97358.47;;;12.62;94.62
21869;BME280;11099;41.564;23.296;2023-04-30T02:22:23;97378.72;;;12.92;93.19
21869;BME280;11099;41.564;23.296;2023-04-30T02:24:49;97324.19;;;12.05;96.83
21869;BME280;11099;41.564;23.296;2023-04-30T02:27:16;97354.16;;;12.02;98.22
21869;BME280;11099;41.564;23.296;2023-04-30T02:29:42;97301.91;;;12.01;97.77
21869;BME280;11099;41.564;23.296;2023-04-30T02:32:08;97122.88;;;10.53;99.18
21869;BME280;11099;41.564;23.296;2023-04-30T02:34:33;97277.41;;;11.34;99.56
21869;BME280;11099;41.564;23.296;2023-04-30T02:36:59;97284.44;;;11.65;97.73
21869;BME280;11099;41.564;23.296;2023-04-30T02:39:25;97124.88;;;10.91;96.94
21869;BME280;11099;41.564;23.296;2023-04-30T02:41:50;97135.91;;;10.46;97.51
21869;BME280;11099;41.564;23.296;2023-04-30T02:44:16;97353.28;;;12.27;96.53
21869;BME280;11099;41.564;23.296;2023-04-30T02:46:41;97375.88;;;12.30;96.37
21869;BME280;11099;41.564;23.296;2023-04-30T02:49:07;97277.94;;;11.75;95.98
21869;BME280;11099;41.564;23.296;2023-04-30T02:51:32;97336.31;;;12.32;94.78
21869;BME280;11099;41.564;23.296;2023-04-30T02:53:58;97373.94;;;12.48;94.88
21869;BME280;11099;41.564;23.296;2023-04-30T02:56:23;97345.91;;;12.24;94.78
21869;BME280;11099;41.564;23.296;2023-04-30T02:58:49;97374.81;;;12.22;96.41
21869;BME280;11099;41.564;23.296;2023-04-30T03:01:14;97333.16;;;11.92;96.84
21869;BME280;11099;41.564;23.296;2023-04-30T03:03:40;97258.81;;;11.73;95.83
21869;BME280;11099;41.564;23.296;2023-04-30T03:06:06;97251.28;;;11.83;93.15
21869;BME280;11099;41.564;23.296;2023-04-30T03:08:31;97150.19;;;11.14;92.66
21869;BME280;11099;41.564;23.296;2023-04-30T03:10:57;97156.81;;;10.99;94.03
21869;BME280;11099;41.564;23.296;2023-04-30T03:13:22;97376.22;;;12.58;93.33
21869;BME280;11099;41.564;23.296;2023-04-30T03:15:56;97157.13;;;10.98;94.31
21869;BME280;11099;41.564;23.296;2023-04-30T03:18:22;97272.19;;;11.64;95.17
21869;BME280;11099;41.564;23.296;2023-04-30T03:20:48;97255.56;;;11.67;94.17
21869;BME280;11099;41.564;23.296;2023-04-30T03:23:13;97327.81;;;11.92;94.37
21869;BME280;11099;41.564;23.296;2023-04-30T03:25:39;97342.25;;;11.99;95.51
21869;BME280;11099;41.564;23.296;2023-04-30T03:28:04;97400.44;;;12.15;95.62
21869;BME280;11099;41.564;23.296;2023-04-30T03:30:30;97262.50;;;11.51;94.10
21869;BME280;11099;41.564;23.296;2023-04-30T03:32:56;97298.44;;;12.09;92.79
21869;BME280;11099;41.564;23.296;2023-04-30T03:35:22;97145.41;;;10.99;92.73
21869;BME280;11099;41.564;23.296;2023-04-30T03:37:48;97154.50;;;10.80;92.52
21869;BME280;11099;41.564;23.296;2023-04-30T03:40:13;97187.84;;;10.69;93.58
21869;BME280;11099;41.564;23.296;2023-04-30T03:42:40;97377.50;;;12.13;94.20
21869;BME280;11099;41.564;23.296;2023-04-30T03:45:06;97351.69;;;11.62;95.93
21869;BME280;11099;41.564;23.296;2023-04-30T03:47:32;97407.34;;;12.07;96.03
21869;BME280;11099;41.564;23.296;2023-04-30T03:49:58;97196.47;;;10.66;94.43
21869;BME280;11099;41.564;23.296;2023-04-30T03:52:23;97318.44;;;11.77;95.86
21869;BME280;11099;41.564;23.296;2023-04-30T03:54:50;97273.84;;;11.04;96.04
21869;BME280;11099;41.564;23.296;2023-04-30T03:57:16;97331.50;;;11.44;97.58
21869;BME280;11099;41.564;23.296;2023-04-30T03:59:42;97293.88;;;11.19;97.25
21869;BME280;11099;41.564;23.296;2023-04-30T04:02:07;97170.63;;;10.41;96.88
21869;BME280;11099;41.564;23.296;2023-04-30T04:04:33;97213.22;;;10.75;97.13
21869;BME280;11099;41.564;23.296;2023-04-30T04:06:59;97355.16;;;11.63;96.61
21869;BME280;11099;41.564;23.296;2023-04-30T04:09:27;97172.66;;;10.78;93.52
21869;BME280;11099;41.564;23.296;2023-04-30T04:11:52;97198.88;;;11.41;91.10
21869;BME280;11099;41.564;23.296;2023-04-30T04:14:18;97298.06;;;12.49;87.79
21869;BME280;11099;41.564;23.296;2023-04-30T04:16:44;97213.13;;;11.92;86.82
21869;BME280;11099;41.564;23.296;2023-04-30T04:19:09;97227.00;;;12.35;84.92
21869;BME280;11099;41.564;23.296;2023-04-30T04:21:37;97335.06;;;13.51;83.81
21869;BME280;11099;41.564;23.296;2023-04-30T04:24:02;97360.38;;;13.87;83.11
21869;BME280;11099;41.564;23.296;2023-04-30T04:26:33;97212.75;;;13.60;78.93
21869;BME280;11099;41.564;23.296;2023-04-30T04:29:01;97434.09;;;15.52;77.89
21869;BME280;11099;41.564;23.296;2023-04-30T04:31:27;97239.06;;;14.96;75.88
21869;BME280;11099;41.564;23.296;2023-04-30T04:33:57;97438.00;;;17.53;68.63
21869;BME280;11099;41.564;23.296;2023-04-30T04:36:25;97231.31;;;17.20;63.46
21869;BME280;11099;41.564;23.296;2023-04-30T04:38:53;97313.25;;;17.84;61.56
21869;BME280;11099;41.564;23.296;2023-04-30T04:41:19;97336.50;;;17.73;61.74
21869;BME280;11099;41.564;23.296;2023-04-30T04:43:45;97371.59;;;18.19;61.66
21869;BME280;11099;41.564;23.296;2023-04-30T04:46:10;97250.19;;;17.43;61.29
21869;BME280;11099;41.564;23.296;2023-04-30T04:48:36;97384.81;;;18.73;60.85
21869;BME280;11099;41.564;23.296;2023-04-30T04:51:02;97345.56;;;18.76;58.86
21869;BME280;11099;41.564;23.296;2023-04-30T04:53:27;97332.75;;;18.69;59.17
21869;BME280;11099;41.564;23.296;2023-04-30T04:55:53;97409.78;;;19.19;59.29
21869;BME280;11099;41.564;23.296;2023-04-30T04:58:22;97370.41;;;18.65;59.11
21869;BME280;11099;41.564;23.296;2023-04-30T05:00:50;97254.66;;;17.35;61.64
21869;BME280;11099;41.564;23.296;2023-04-30T05:03:19;97264.59;;;17.11;61.64
21869;BME280;11099;41.564;23.296;2023-04-30T05:05:45;97450.47;;;19.07;61.64
21869;BME280;11099;41.564;23.296;2023-04-30T05:08:11;97360.31;;;19.12;59.42
21869;BME280;11099;41.564;23.296;2023-04-30T05:10:37;97490.97;;;19.94;58.61
21869;BME280;11099;41.564;23.296;2023-04-30T05:13:05;97341.06;;;19.43;56.98
21869;BME280;11099;41.564;23.296;2023-04-30T05:15:31;97403.75;;;19.93;58.09
21869;BME280;11099;41.564;23.296;2023-04-30T05:17:57;97326.69;;;19.66;56.90
21869;BME280;11099;41.564;23.296;2023-04-30T05:20:22;97261.72;;;19.52;55.96
21869;BME280;11099;41.564;23.296;2023-04-30T05:22:48;97262.31;;;19.71;54.37
21869;BME280;11099;41.564;23.296;2023-04-30T05:25:14;97421.25;;;20.03;57.13
21869;BME280;11099;41.564;23.296;2023-04-30T05:27:40;97403.44;;;19.08;59.83
21869;BME280;11099;41.564;23.296;2023-04-30T05:30:07;97235.97;;;17.42;61.70
21869;BME280;11099;41.564;23.296;2023-04-30T05:32:33;97377.88;;;18.26;63.05
21869;BME280;11099;41.564;23.296;2023-04-30T05:34:59;97481.66;;;18.39;64.48
21869;BME280;11099;41.564;23.296;2023-04-30T05:37:25;97328.66;;;17.64;64.31
21869;BME280;11099;41.564;23.296;2023-04-30T05:39:50;97409.53;;;18.10;63.48
21869;BME280;11099;41.564;23.296;2023-04-30T05:42:18;97354.13;;;17.51;65.73
21869;BME280;11099;41.564;23.296;2023-04-30T05:44:44;97470.09;;;17.97;66.75
21869;BME280;11099;41.564;23.296;2023-04-30T05:47:10;97392.81;;;17.43;66.64
21869;BME280;11099;41.564;23.296;2023-04-30T05:49:35;97361.84;;;17.72;65.53
21869;BME280;11099;41.564;23.296;2023-04-30T05:52:01;97442.63;;;18.10;66.17
21869;BME280;11099;41.564;23.296;2023-04-30T05:54:31;97350.84;;;17.03;68.96
21869;BME280;11099;41.564;23.296;2023-04-30T05:56:56;97479.66;;;17.08;73.41
21869;BME280;11099;41.564;23.296;2023-04-30T05:59:22;97304.38;;;15.72;74.73
21869;BME280;11099;41.564;23.296;2023-04-30T06:01:47;97439.50;;;16.52;76.15
21869;BME280;11099;41.564;23.296;2023-04-30T06:04:13;97434.88;;;16.21;77.72
21869;BME280;11099;41.564;23.296;2023-04-30T06:06:38;97503.81;;;16.17;81.23
21869;BME280;11099;41.564;23.296;2023-04-30T06:09:04;97452.47;;;15.90;81.89
21869;BME280;11099;41.564;23.296;2023-04-30T06:11:30;97464.91;;;16.11;81.89
21869;BME280;11099;41.564;23.296;2023-04-30T06:13:55;97459.38;;;15.51;84.67
21869;BME280;11099;41.564;23.296;2023-04-30T06:16:21;97389.03;;;15.17;84.79
21869;BME280;11099;41.564;23.296;2023-04-30T06:18:47;97388.06;;;15.38;84.30
21869;BME280;11099;41.564;23.296;2023-04-30T06:21:13;97493.50;;;15.91;84.32
21869;BME280;11099;41.564;23.296;2023-04-30T06:23:38;97394.13;;;15.35;84.07
21869;BME280;11099;41.564;23.296;2023-04-30T06:26:04;97404.31;;;15.29;84.18
21869;BME280;11099;41.564;23.296;2023-04-30T06:28:29;97484.03;;;15.81;84.78
21869;BME280;11099;41.564;23.296;2023-04-30T06:30:55;97340.09;;;15.20;83.24
21869;BME280;11099;41.564;23.296;2023-04-30T06:33:22;97384.34;;;15.54;81.86
21869;BME280;11099;41.564;23.296;2023-04-30T06:35:51;97393.94;;;15.68;81.90
21869;BME280;11099;41.564;23.296;2023-04-30T06:38:26;97328.94;;;15.18;82.54
21869;BME280;11099;41.564;23.296;2023-04-30T06:40:54;97319.63;;;15.28;83.65
21869;BME280;11099;41.564;23.296;2023-04-30T06:43:22;97411.66;;;15.85;82.28
21869;BME280;11099;41.564;23.296;2023-04-30T06:45:55;97392.84;;;15.57;83.35
21869;BME280;11099;41.564;23.296;2023-04-30T06:48:21;97460.78;;;16.29;81.69
21869;BME280;11099;41.564;23.296;2023-04-30T06:50:47;97359.59;;;15.73;79.52
21869;BME280;11099;41.564;23.296;2023-04-30T06:53:13;97461.97;;;16.59;80.13
21869;BME280;11099;41.564;23.296;2023-04-30T06:55:43;97381.59;;;16.23;77.03
21869;BME280;11099;41.564;23.296;2023-04-30T06:58:11;97386.53;;;16.37;76.56
21869;BME280;11099;41.564;23.296;2023-04-30T07:00:36;97384.59;;;16.37;75.53
21869;BME280;11099;41.564;23.296;2023-04-30T07:03:02;97282.78;;;15.69;74.86
21869;BME280;11099;41.564;23.296;2023-04-30T07:05:32;97392.00;;;16.40;74.97
21869;BME280;11099;41.564;23.296;2023-04-30T07:07:59;97466.13;;;17.04;76.47
21869;BME280;11099;41.564;23.296;2023-04-30T07:10:25;97464.75;;;16.79;76.01
21869;BME280;11099;41.564;23.296;2023-04-30T07:12:51;97389.56;;;16.51;74.95
21869;BME280;11099;41.564;23.296;2023-04-30T07:15:17;97420.63;;;16.80;74.69
21869;BME280;11099;41.564;23.296;2023-04-30T07:17:42;97431.34;;;16.96;74.55
21869;BME280;11099;41.564;23.296;2023-04-30T07:20:08;97369.56;;;16.48;74.61
21869;BME280;11099;41.564;23.296;2023-04-30T07:22:34;97377.09;;;16.27;74.83
21869;BME280;11099;41.564;23.296;2023-04-30T07:25:00;97469.34;;;16.78;75.49
21869;BME280;11099;41.564;23.296;2023-04-30T07:27:28;97362.53;;;16.28;75.95
21869;BME280;11099;41.564;23.296;2023-04-30T07:29:54;97461.97;;;16.75;75.78
21869;BME280;11099;41.564;23.296;2023-04-30T07:32:20;97454.50;;;16.69;76.06
21869;BME280;11099;41.564;23.296;2023-04-30T07:34:46;97394.53;;;16.49;75.95
21869;BME280;11099;41.564;23.296;2023-04-30T07:37:12;97460.56;;;16.97;76.18
21869;BME280;11099;41.564;23.296;2023-04-30T07:39:38;97404.91;;;16.50;77.88
21869;BME280;11099;41.564;23.296;2023-04-30T07:42:04;97422.47;;;16.76;76.77
21869;BME280;11099;41.564;23.296;2023-04-30T07:44:30;97385.56;;;16.29;77.26
21869;BME280;11099;41.564;23.296;2023-04-30T07:46:56;97440.41;;;16.72;77.18
21869;BME280;11099;41.564;23.296;2023-04-30T07:49:21;97343.81;;;16.00;77.61
21869;BME280;11099;41.564;23.296;2023-04-30T07:51:47;97434.75;;;16.77;78.00
21869;BME280;11099;41.564;23.296;2023-04-30T07:54:13;97345.78;;;16.50;77.03
21869;BME280;11099;41.564;23.296;2023-04-30T07:56:38;97376.63;;;16.25;80.28
21869;BME280;11099;41.564;23.296;2023-04-30T07:59:04;97467.91;;;17.32;76.63
21869;BME280;11099;41.564;23.296;2023-04-30T08:01:30;97425.56;;;17.29;77.37
21869;BME280;11099;41.564;23.296;2023-04-30T08:03:55;97409.50;;;17.52;75.08
21869;BME280;11099;41.564;23.296;2023-04-30T08:06:21;97412.63;;;18.12;72.54
21869;BME280;11099;41.564;23.296;2023-04-30T08:08:47;97432.09;;;18.90;70.13
21869;BME280;11099;41.564;23.296;2023-04-30T08:11:12;97350.63;;;19.07;66.59
21869;BME280;11099;41.564;23.296;2023-04-30T08:13:39;97369.66;;;18.19;67.00
21869;BME280;11099;41.564;23.296;2023-04-30T08:16:06;97352.03;;;18.98;62.49
21869;BME280;11099;41.564;23.296;2023-04-30T08:18:31;97354.56;;;19.13;61.50
21869;BME280;11099;41.564;23.296;2023-04-30T08:20:57;97410.59;;;18.71;63.63
21869;BME280;11099;41.564;23.296;2023-04-30T08:23:23;97439.19;;;19.88;61.66
21869;BME280;11099;41.564;23.296;2023-04-30T08:25:49;97427.22;;;19.86;58.86
21869;BME280;11099;41.564;23.296;2023-04-30T08:28:15;97417.38;;;20.00;55.50
21869;BME280;11099;41.564;23.296;2023-04-30T08:30:41;97435.13;;;20.39;58.95
21869;BME280;11099;41.564;23.296;2023-04-30T08:33:07;97357.03;;;19.89;61.68
21869;BME280;11099;41.564;23.296;2023-04-30T08:35:33;97422.38;;;20.02;62.28
21869;BME280;11099;41.564;23.296;2023-04-30T08:37:58;97444.25;;;20.23;63.46
21869;BME280;11099;41.564;23.296;2023-04-30T08:40:25;97410.47;;;20.44;63.17
21869;BME280;11099;41.564;23.296;2023-04-30T08:43:10;97436.13;;;20.23;63.41
21869;BME280;11099;41.564;23.296;2023-04-30T08:45:36;97433.38;;;20.20;62.50
21869;BME280;11099;41.564;23.296;2023-04-30T08:48:02;97382.97;;;19.97;62.00
21869;BME280;11099;41.564;23.296;2023-04-30T08:50:29;97424.09;;;20.17;64.63
21869;BME280;11099;41.564;23.296;2023-04-30T08:52:56;97353.41;;;20.56;62.06
21869;BME280;11099;41.564;23.296;2023-04-30T08:55:23;97345.94;;;20.97;59.28
21869;BME280;11099;41.564;23.296;2023-04-30T08:57:50;97338.88;;;20.82;57.85
21869;BME280;11099;41.564;23.296;2023-04-30T09:00:16;97385.78;;;21.00;61.28
21869;BME280;11099;41.564;23.296;2023-04-30T09:02:41;97406.47;;;21.30;60.14
21869;BME280;11099;41.564;23.296;2023-04-30T09:05:12;97406.59;;;20.93;59.96
21869;BME280;11099;41.564;23.296;2023-04-30T09:07:40;97379.25;;;20.53;60.01
21869;BME280;11099;41.564;23.296;2023-04-30T09:10:27;97405.31;;;20.32;59.16
21869;BME280;11099;41.564;23.296;2023-04-30T09:13:08;97387.31;;;20.09;59.76
21869;BME280;11099;41.564;23.296;2023-04-30T09:15:36;97386.25;;;20.17;59.17
21869;BME280;11099;41.564;23.296;2023-04-30T09:18:12;97406.38;;;20.61;60.79
21869;BME280;11099;41.564;23.296;2023-04-30T09:20:54;97403.25;;;20.18;61.24
21869;BME280;11099;41.564;23.296;2023-04-30T09:23:20;97371.66;;;19.85;63.78
21869;BME280;11099;41.564;23.296;2023-04-30T09:25:45;97346.84;;;19.76;61.51
21869;BME280;11099;41.564;23.296;2023-04-30T09:28:12;97398.25;;;20.20;60.62
21869;BME280;11099;41.564;23.296;2023-04-30T09:30:39;97324.69;;;19.59;62.34
21869;BME280;11099;41.564;23.296;2023-04-30T09:33:05;97309.97;;;19.23;60.94
21869;BME280;11099;41.564;23.296;2023-04-30T09:35:35;97393.97;;;19.78;59.57
21869;BME280;11099;41.564;23.296;2023-04-30T09:38:03;97315.25;;;19.46;60.62
21869;BME280;11099;41.564;23.296;2023-04-30T09:40:38;97395.31;;;19.98;60.54
21869;BME280;11099;41.564;23.296;2023-04-30T09:43:07;97357.28;;;19.77;60.65
21869;BME280;11099;41.564;23.296;2023-04-30T09:45:46;97371.03;;;19.65;61.13
21869;BME280;11099;41.564;23.296;2023-04-30T09:48:20;97364.09;;;19.64;58.52
21869;BME280;11099;41.564;23.296;2023-04-30T09:50:47;97368.94;;;19.51;59.89
21869;BME280;11099;41.564;23.296;2023-04-30T09:53:13;97349.81;;;19.63;60.69
21869;BME280;11099;41.564;23.296;2023-04-30T09:55:43;97376.91;;;20.08;58.83
21869;BME280;11099;41.564;23.296;2023-04-30T09:58:10;97373.34;;;20.89;57.02
21869;BME280;11099;41.564;23.296;2023-04-30T10:00:37;97309.56;;;20.88;55.82
21869;BME280;11099;41.564;23.296;2023-04-30T10:03:06;97330.84;;;20.93;54.21
21869;BME280;11099;41.564;23.296;2023-04-30T10:05:37;97360.22;;;21.67;53.63
21869;BME280;11099;41.564;23.296;2023-04-30T10:08:09;97300.25;;;21.65;58.50
21869;BME280;11099;41.564;23.296;2023-04-30T10:10:39;97353.66;;;21.75;60.59
21869;BME280;11099;41.564;23.296;2023-04-30T10:13:10;97309.28;;;21.07;53.81
21869;BME280;11099;41.564;23.296;2023-04-30T10:15:42;97340.66;;;21.26;54.98
21869;BME280;11099;41.564;23.296;2023-04-30T10:18:22;97290.00;;;21.19;53.05
21869;BME280;11099;41.564;23.296;2023-04-30T10:20:50;97347.94;;;22.09;52.63
21869;BME280;11099;41.564;23.296;2023-04-30T10:23:18;97315.44;;;22.16;52.13
21869;BME280;11099;41.564;23.296;2023-04-30T10:25:46;97354.94;;;22.56;52.65
21869;BME280;11099;41.564;23.296;2023-04-30T10:28:11;97341.38;;;22.81;51.17
21869;BME280;11099;41.564;23.296;2023-04-30T10:30:37;97293.75;;;22.48;51.65
21869;BME280;11099;41.564;23.296;2023-04-30T10:33:20;97337.09;;;22.84;49.70
21869;BME280;11099;41.564;23.296;2023-04-30T10:36:00;97332.06;;;22.90;50.20
21869;BME280;11099;41.564;23.296;2023-04-30T10:38:31;97269.28;;;22.70;49.36
21869;BME280;11099;41.564;23.296;2023-04-30T10:40:59;97324.69;;;22.90;51.23
21869;BME280;11099;41.564;23.296;2023-04-30T10:43:30;97320.47;;;22.46;53.59
21869;BME280;11099;41.564;23.296;2023-04-30T10:45:57;97243.75;;;21.85;57.21
21869;BME280;11099;41.564;23.296;2023-04-30T10:48:23;97293.72;;;22.30;60.97
21869;BME280;11099;41.564;23.296;2023-04-30T10:51:00;97291.00;;;22.70;55.40
21869;BME280;11099;41.564;23.296;2023-04-30T10:53:30;97304.94;;;22.57;53.20
21869;BME280;11099;41.564;23.296;2023-04-30T10:56:00;97255.78;;;22.23;52.81
21869;BME280;11099;41.564;23.296;2023-04-30T10:58:32;97222.47;;;22.05;53.88
21869;BME280;11099;41.564;23.296;2023-04-30T11:03:30;97227.09;;;22.29;52.72
21869;BME280;11099;41.564;23.296;2023-04-30T11:05:58;97222.09;;;22.21;51.70
21869;BME280;11099;41.564;23.296;2023-04-30T11:08:37;97195.34;;;22.01;57.59
21869;BME280;11099;41.564;23.296;2023-04-30T11:11:03;97259.59;;;22.65;57.35
21869;BME280;11099;41.564;23.296;2023-04-30T11:13:59;97259.53;;;22.97;54.72
21869;BME280;11099;41.564;23.296;2023-04-30T11:16:33;97285.16;;;22.71;53.10
21869;BME280;11099;41.564;23.296;2023-04-30T11:19:25;97275.84;;;22.94;53.65
21869;BME280;11099;41.564;23.296;2023-04-30T11:24:48;97279.75;;;22.71;48.09
21869;BME280;11099;41.564;23.296;2023-04-30T11:27:19;97238.63;;;22.80;48.72
21869;BME280;11099;41.564;23.296;2023-04-30T11:29:44;97218.06;;;22.90;47.16
21869;BME280;11099;41.564;23.296;2023-04-30T11:32:11;97267.78;;;23.56;50.78
21869;BME280;11099;41.564;23.296;2023-04-30T11:34:37;97146.69;;;23.00;49.76
21869;BME280;11099;41.564;23.296;2023-04-30T11:37:03;97203.69;;;23.70;50.14
21869;BME280;11099;41.564;23.296;2023-04-30T11:39:29;97135.66;;;22.44;48.51
21869;BME280;11099;41.564;23.296;2023-04-30T11:41:57;97164.91;;;23.03;47.38
21869;BME280;11099;41.564;23.296;2023-04-30T11:44:26;97255.25;;;23.80;48.35
21869;BME280;11099;41.564;23.296;2023-04-30T11:46:52;97209.06;;;23.07;47.47
21869;BME280;11099;41.564;23.296;2023-04-30T11:49:19;97253.47;;;23.52;46.33
21869;BME280;11099;41.564;23.296;2023-04-30T11:51:48;97213.03;;;22.88;38.91
21869;BME280;11099;41.564;23.296;2023-04-30T11:54:15;97186.16;;;23.15;41.42
21869;BME280;11099;41.564;23.296;2023-04-30T11:56:45;97228.66;;;23.43;42.97
21869;BME280;11099;41.564;23.296;2023-04-30T11:59:14;97275.41;;;23.86;42.62
21869;BME280;11099;41.564;23.296;2023-04-30T12:01:43;97177.50;;;23.34;44.73
21869;BME280;11099;41.564;23.296;2023-04-30T12:04:09;97201.22;;;23.30;44.33
21869;BME280;11099;41.564;23.296;2023-04-30T12:06:35;97201.09;;;23.48;44.08
21869;BME280;11099;41.564;23.296;2023-04-30T12:09:02;97154.19;;;22.60;42.46
21869;BME280;11099;41.564;23.296;2023-04-30T12:11:32;97269.25;;;22.73;44.36
21869;BME280;11099;41.564;23.296;2023-04-30T12:14:03;97272.41;;;22.54;43.98
21869;BME280;11099;41.564;23.296;2023-04-30T12:19:06;97268.94;;;22.46;45.02
21869;BME280;11099;41.564;23.296;2023-04-30T12:21:34;97164.72;;;21.26;44.05
21869;BME280;11099;41.564;23.296;2023-04-30T12:23:59;97069.94;;;20.83;45.30
21869;BME280;11099;41.564;23.296;2023-04-30T12:26:34;97187.22;;;21.55;43.53
21869;BME280;11099;41.564;23.296;2023-04-30T12:29:03;97262.34;;;21.94;44.56
21869;BME280;11099;41.564;23.296;2023-04-30T12:31:31;97167.84;;;21.31;45.99
21869;BME280;11099;41.564;23.296;2023-04-30T12:33:57;97142.34;;;21.40;46.59
21869;BME280;11099;41.564;23.296;2023-04-30T12:36:29;97258.13;;;22.11;47.17
21869;BME280;11099;41.564;23.296;2023-04-30T12:39:05;97244.94;;;21.88;45.77
21869;BME280;11099;41.564;23.296;2023-04-30T12:41:43;97085.00;;;20.98;46.91
21869;BME280;11099;41.564;23.296;2023-04-30T12:44:27;97212.00;;;21.57;48.14
21869;BME280;11099;41.564;23.296;2023-04-30T12:46:57;97172.91;;;21.40;46.69
21869;BME280;11099;41.564;23.296;2023-04-30T12:49:34;97239.53;;;22.13;45.37
21869;BME280;11099;41.564;23.296;2023-04-30T12:52:09;97257.69;;;21.91;47.20
21869;BME280;11099;41.564;23.296;2023-04-30T12:54:37;97235.22;;;21.65;45.45
21869;BME280;11099;41.564;23.296;2023-04-30T12:57:10;97187.13;;;21.19;44.67
21869;BME280;11099;41.564;23.296;2023-04-30T13:02:21;97257.72;;;22.16;44.43
21869;BME280;11099;41.564;23.296;2023-04-30T13:04:46;97209.31;;;22.11;44.18
21869;BME280;11099;41.564;23.296;2023-04-30T13:07:13;97195.78;;;22.14;43.11
21869;BME280;11099;41.564;23.296;2023-04-30T13:09:38;97177.19;;;21.98;42.07
21869;BME280;11099;41.564;23.296;2023-04-30T13:12:04;97125.69;;;21.27;43.23
21869;BME280;11099;41.564;23.296;2023-04-30T13:14:31;97183.75;;;21.44;43.27
21869;BME280;11099;41.564;23.296;2023-04-30T13:16:56;97110.81;;;20.60;43.03
21869;BME280;11099;41.564;23.296;2023-04-30T13:19:22;97161.25;;;21.29;43.26